createdAt,value
2017-09-24T00:00:38.456Z,14.32
2017-09-24T00:01:44.322Z,14.63
2017-09-24T00:02:50.393Z,14.95
2017-09-24T00:03:56.526Z,15.05
2017-09-24T00:05:02.580Z,15.18
2017-09-24T00:06:08.666Z,14.15
2017-09-24T00:07:14.719Z,13.85
2017-09-24T00:08:20.561Z,13.20
2017-09-24T00:09:26.669Z,13.80
2017-09-24T00:10:32.735Z,13.30
2017-09-24T00:11:38.829Z,13.48
2017-09-24T00:12:44.877Z,13.80
2017-09-24T00:13:50.934Z,13.73
2017-09-24T00:14:57.015Z,14.02
2017-09-24T00:16:03.095Z,15.15
2017-09-24T00:17:09.213Z,14.10
2017-09-24T00:18:15.345Z,14.27
2017-09-24T00:19:21.474Z,14.65
2017-09-24T00:20:27.574Z,14.30
2017-09-24T00:21:33.654Z,13.88
2017-09-24T00:22:39.813Z,14.15
2017-09-24T00:23:45.897Z,15.55
2017-09-24T00:24:51.795Z,14.70
2017-09-24T00:25:57.683Z,13.80
2017-09-24T00:27:04.574Z,14.15
2017-09-24T00:28:10.463Z,13.75
2017-09-24T00:29:16.337Z,13.93
2017-09-24T00:30:22.007Z,14.55
2017-09-24T00:31:27.878Z,15.05
2017-09-24T00:32:33.761Z,15.23
2017-09-24T00:33:40.700Z,16.02
2017-09-24T00:34:46.627Z,16.33
2017-09-24T00:35:52.500Z,15.98
2017-09-24T00:36:59.471Z,15.80
2017-09-24T00:38:05.563Z,16.77
2017-09-24T00:39:12.305Z,16.55
2017-09-24T00:40:18.182Z,17.15
2017-09-24T00:41:24.018Z,15.98
2017-09-24T00:42:30.100Z,16.12
2017-09-24T00:43:36.188Z,17.17
2017-09-24T00:44:42.090Z,16.37
2017-09-24T00:45:48.140Z,17.20
2017-09-24T00:46:53.878Z,15.93
2017-09-24T00:48:00.267Z,17.33
2017-09-24T00:49:06.339Z,15.65
2017-09-24T00:50:12.468Z,14.93
2017-09-24T00:51:18.331Z,15.40
2017-09-24T00:52:24.434Z,17.00
2017-09-24T00:53:30.291Z,17.12
2017-09-24T00:54:35.998Z,17.95
2017-09-24T00:55:41.742Z,15.55
2017-09-24T00:56:46.897Z,15.98
2017-09-24T00:57:52.977Z,15.90
2017-09-24T00:58:58.243Z,16.52
2017-09-24T01:00:03.388Z,16.12
2017-09-24T01:01:08.946Z,17.33
2017-09-24T01:02:14.819Z,19.33
2017-09-24T01:03:20.893Z,17.35
2017-09-24T01:04:27.294Z,16.02
2017-09-24T01:05:34.258Z,16.62
2017-09-24T01:06:40.213Z,17.02
2017-09-24T01:07:46.266Z,17.05
2017-09-24T01:08:52.327Z,17.50
2017-09-24T01:09:58.404Z,16.90
2017-09-24T01:11:04.281Z,17.80
2017-09-24T01:12:10.397Z,18.12
2017-09-24T01:13:16.275Z,17.85
2017-09-24T01:14:21.972Z,15.88
2017-09-24T01:15:27.663Z,16.77
2017-09-24T01:16:33.514Z,18.05
2017-09-24T01:17:40.522Z,17.62
2017-09-24T01:18:46.238Z,17.42
2017-09-24T01:19:51.918Z,17.23
2017-09-24T01:20:57.066Z,17.35
2017-09-24T01:22:02.798Z,17.00
2017-09-24T01:23:07.972Z,17.92
2017-09-24T01:24:13.665Z,15.93
2017-09-24T01:25:18.814Z,17.77
2017-09-24T01:26:24.002Z,17.00
2017-09-24T01:27:29.152Z,17.23
2017-09-24T01:28:34.934Z,16.58
2017-09-24T01:29:40.355Z,15.93
2017-09-24T01:30:45.802Z,16.45
2017-09-24T01:31:51.161Z,16.95
2017-09-24T01:32:56.895Z,16.62
2017-09-24T01:34:02.325Z,17.83
2017-09-24T01:35:08.638Z,18.20
2017-09-24T01:36:14.390Z,15.38
2017-09-24T01:37:20.138Z,17.27
2017-09-24T01:38:25.475Z,17.77
2017-09-24T01:39:31.714Z,17.70
2017-09-24T01:40:38.667Z,18.48
2017-09-24T01:41:44.410Z,17.35
2017-09-24T01:42:50.121Z,16.02
2017-09-24T01:43:55.859Z,17.10
2017-09-24T01:45:01.407Z,17.10
2017-09-24T01:46:07.153Z,16.67
2017-09-24T01:47:13.251Z,16.42
2017-09-24T01:48:18.985Z,16.55
2017-09-24T01:49:24.166Z,17.42
2017-09-24T01:50:29.546Z,16.85
2017-09-24T01:51:35.257Z,17.80
2017-09-24T01:52:41.402Z,18.12
2017-09-24T01:53:47.074Z,19.33
2017-09-24T01:54:52.238Z,17.70
2017-09-24T01:55:57.984Z,18.80
2017-09-24T01:57:03.479Z,19.02
2017-09-24T01:58:08.827Z,20.08
2017-09-24T01:59:14.508Z,19.08
2017-09-24T02:00:21.133Z,19.75
2017-09-24T02:01:27.039Z,17.08
2017-09-24T02:02:32.914Z,17.70
2017-09-24T02:03:38.777Z,17.80
2017-09-24T02:04:44.647Z,19.00
2017-09-24T02:05:50.729Z,17.30
2017-09-24T02:06:56.829Z,17.30
2017-09-24T02:08:03.793Z,17.55
2017-09-24T02:09:09.859Z,15.93
2017-09-24T02:10:15.817Z,18.25
2017-09-24T02:11:21.889Z,17.62
2017-09-24T02:12:28.000Z,16.30
2017-09-24T02:13:34.063Z,16.65
2017-09-24T02:14:41.013Z,19.75
2017-09-24T02:15:47.089Z,19.27
2017-09-24T02:16:53.166Z,19.12
2017-09-24T02:17:59.279Z,18.23
2017-09-24T02:19:05.333Z,19.20
2017-09-24T02:20:11.178Z,19.90
2017-09-24T02:21:17.051Z,18.62
2017-09-24T02:22:23.091Z,18.42
2017-09-24T02:23:29.205Z,16.85
2017-09-24T02:24:35.243Z,19.08
2017-09-24T02:25:41.375Z,16.42
2017-09-24T02:26:48.337Z,17.48
2017-09-24T02:27:54.412Z,16.52
2017-09-24T02:29:00.521Z,17.00
2017-09-24T02:30:07.508Z,17.27
2017-09-24T02:31:13.574Z,17.70
2017-09-24T02:32:19.666Z,16.65
2017-09-24T02:33:25.739Z,16.50
2017-09-24T02:34:31.855Z,16.75
2017-09-24T02:35:37.948Z,17.80
2017-09-24T02:36:44.018Z,17.42
2017-09-24T02:37:50.103Z,16.37
2017-09-24T02:38:57.218Z,17.98
2017-09-24T02:40:03.133Z,17.17
2017-09-24T02:41:09.226Z,14.85
2017-09-24T02:42:16.010Z,17.75
2017-09-24T02:43:22.075Z,15.95
2017-09-24T02:44:27.961Z,16.90
2017-09-24T02:45:33.869Z,16.20
2017-09-24T02:46:39.946Z,16.05
2017-09-24T02:47:46.019Z,18.80
2017-09-24T02:48:52.094Z,15.90
2017-09-24T02:49:58.174Z,16.05
2017-09-24T02:51:04.077Z,14.93
2017-09-24T02:52:09.958Z,15.60
2017-09-24T02:53:16.182Z,15.15
2017-09-24T02:54:22.259Z,15.30
2017-09-24T02:55:29.250Z,15.48
2017-09-24T02:56:35.381Z,15.25
2017-09-24T02:57:41.448Z,14.95
2017-09-24T02:58:48.414Z,15.40
2017-09-24T02:59:54.470Z,16.62
2017-09-24T03:01:00.531Z,15.43
2017-09-24T03:02:06.605Z,15.38
2017-09-24T03:03:12.668Z,17.00
2017-09-24T03:04:18.744Z,15.45
2017-09-24T03:05:24.848Z,15.05
2017-09-24T03:06:30.923Z,16.80
2017-09-24T03:07:37.148Z,15.52
2017-09-24T03:08:43.209Z,17.02
2017-09-24T03:09:49.276Z,16.20
2017-09-24T03:10:55.411Z,16.98
2017-09-24T03:12:01.478Z,17.42
2017-09-24T03:13:07.578Z,20.95
2017-09-24T03:14:13.624Z,17.40
2017-09-24T03:15:19.671Z,18.50
2017-09-24T03:16:25.726Z,17.00
2017-09-24T03:17:31.771Z,16.45
2017-09-24T03:18:38.169Z,16.80
2017-09-24T03:19:44.364Z,17.10
2017-09-24T03:20:51.347Z,16.83
2017-09-24T03:21:57.474Z,17.75
2017-09-24T03:23:03.546Z,15.60
2017-09-24T03:24:09.644Z,17.02
2017-09-24T03:25:18.661Z,16.20
2017-09-24T03:26:24.762Z,17.35
2017-09-24T03:27:30.869Z,16.73
2017-09-24T03:28:36.953Z,16.87
2017-09-24T03:29:43.069Z,16.77
2017-09-24T03:30:49.169Z,17.35
2017-09-24T03:31:55.262Z,16.95
2017-09-24T03:33:01.378Z,17.05
2017-09-24T03:34:07.462Z,17.35
2017-09-24T03:35:13.608Z,16.35
2017-09-24T03:36:19.695Z,18.05
2017-09-24T03:37:26.259Z,18.35
2017-09-24T03:38:32.340Z,17.42
2017-09-24T03:39:38.416Z,16.77
2017-09-24T03:40:44.491Z,17.98
2017-09-24T03:41:50.557Z,18.23
2017-09-24T03:42:56.624Z,16.95
2017-09-24T03:44:02.694Z,17.33
2017-09-24T03:45:08.795Z,17.40
2017-09-24T03:46:14.923Z,18.87
2017-09-24T03:47:20.990Z,17.67
2017-09-24T03:48:27.061Z,15.77
2017-09-24T03:49:33.118Z,18.08
2017-09-24T03:50:39.178Z,17.15
2017-09-24T03:51:45.281Z,18.08
2017-09-24T03:52:51.374Z,17.08
2017-09-24T03:53:57.455Z,16.55
2017-09-24T03:55:03.537Z,17.52
2017-09-24T03:56:09.415Z,17.83
2017-09-24T03:57:15.342Z,18.10
2017-09-24T03:58:21.399Z,17.90
2017-09-24T03:59:27.463Z,18.83
2017-09-24T04:00:33.166Z,18.55
2017-09-24T04:01:39.273Z,16.65
2017-09-24T04:02:47.207Z,17.70
2017-09-24T04:03:53.270Z,18.05
2017-09-24T04:04:59.346Z,18.08
2017-09-24T04:06:05.451Z,18.35
2017-09-24T04:07:11.545Z,16.33
2017-09-24T04:08:17.669Z,17.52
2017-09-24T04:09:23.801Z,16.80
2017-09-24T04:10:29.679Z,18.25
2017-09-24T04:11:35.760Z,16.98
2017-09-24T04:12:41.865Z,19.70
2017-09-24T04:13:48.047Z,17.87
2017-09-24T04:14:54.086Z,18.58
2017-09-24T04:16:00.182Z,17.42
2017-09-24T04:17:07.267Z,18.42
2017-09-24T04:18:13.376Z,17.60
2017-09-24T04:19:19.520Z,17.58
2017-09-24T04:20:26.499Z,19.25
2017-09-24T04:21:32.584Z,17.85
2017-09-24T04:22:38.662Z,17.77
2017-09-24T04:23:46.895Z,18.23
2017-09-24T04:24:53.004Z,18.42
2017-09-24T04:25:59.068Z,17.58
2017-09-24T04:27:05.138Z,19.60
2017-09-24T04:28:11.190Z,19.10
2017-09-24T04:29:17.266Z,18.15
2017-09-24T04:30:23.365Z,19.92
2017-09-24T04:31:29.421Z,18.52
2017-09-24T04:32:35.520Z,18.75
2017-09-24T04:33:41.621Z,19.33
2017-09-24T04:34:47.796Z,17.98
2017-09-24T04:35:54.189Z,19.58
2017-09-24T04:37:00.269Z,18.17
2017-09-24T04:38:06.321Z,18.58
2017-09-24T04:39:12.358Z,18.87
2017-09-24T04:40:18.412Z,18.17
2017-09-24T04:41:25.452Z,18.12
2017-09-24T04:42:31.486Z,18.37
2017-09-24T04:43:37.527Z,18.45
2017-09-24T04:44:44.505Z,18.77
2017-09-24T04:45:51.453Z,18.90
2017-09-24T04:46:58.444Z,18.20
2017-09-24T04:48:04.494Z,18.33
2017-09-24T04:49:10.620Z,19.27
2017-09-24T04:50:16.725Z,19.75
2017-09-24T04:51:22.775Z,17.65
2017-09-24T04:52:28.879Z,18.67
2017-09-24T04:53:34.937Z,18.23
2017-09-24T04:54:41.031Z,17.02
2017-09-24T04:55:47.086Z,19.12
2017-09-24T04:56:52.952Z,18.75
2017-09-24T04:57:59.077Z,18.12
2017-09-24T04:59:05.142Z,19.05
2017-09-24T05:00:11.202Z,19.60
2017-09-24T05:01:17.300Z,18.90
2017-09-24T05:02:23.360Z,18.85
2017-09-24T05:03:29.467Z,19.95
2017-09-24T05:04:35.539Z,19.92
2017-09-24T05:05:41.586Z,21.67
2017-09-24T05:06:47.725Z,19.35
2017-09-24T05:07:54.067Z,19.20
2017-09-24T05:09:00.161Z,19.40
2017-09-24T05:10:07.165Z,19.00
2017-09-24T05:11:14.119Z,18.83
2017-09-24T05:12:20.205Z,19.80
2017-09-24T05:13:26.264Z,18.73
2017-09-24T05:14:33.130Z,20.40
2017-09-24T05:15:38.465Z,18.60
2017-09-24T05:16:44.349Z,19.00
2017-09-24T05:17:50.409Z,20.23
2017-09-24T05:18:56.362Z,19.52
2017-09-24T05:20:02.491Z,18.35
2017-09-24T05:21:09.662Z,19.40
2017-09-24T05:22:16.604Z,18.70
2017-09-24T05:23:22.680Z,19.70
2017-09-24T05:24:28.735Z,19.48
2017-09-24T05:25:34.813Z,19.83
2017-09-24T05:26:40.882Z,20.12
2017-09-24T05:27:47.266Z,20.62
2017-09-24T05:28:53.303Z,20.75
2017-09-24T05:29:59.354Z,19.00
2017-09-24T05:31:05.508Z,18.58
2017-09-24T05:32:11.561Z,20.02
2017-09-24T05:33:17.423Z,22.30
2017-09-24T05:34:23.293Z,19.50
2017-09-24T05:35:29.345Z,18.70
2017-09-24T05:36:35.563Z,19.67
2017-09-24T05:37:41.637Z,19.08
2017-09-24T05:38:47.760Z,20.85
2017-09-24T05:39:54.032Z,20.35
2017-09-24T05:41:00.077Z,19.77
2017-09-24T05:42:06.186Z,19.70
2017-09-24T05:43:12.248Z,20.27
2017-09-24T05:44:18.295Z,19.42
2017-09-24T05:45:24.341Z,20.17
2017-09-24T05:46:30.396Z,20.23
2017-09-24T05:47:36.482Z,19.00
2017-09-24T05:48:42.539Z,19.48
2017-09-24T05:49:50.164Z,18.80
2017-09-24T05:50:56.228Z,20.08
2017-09-24T05:52:02.282Z,19.98
2017-09-24T05:53:08.358Z,19.77
2017-09-24T05:54:14.419Z,19.55
2017-09-24T05:55:20.581Z,20.90
2017-09-24T05:56:26.638Z,20.60
2017-09-24T05:57:32.870Z,21.12
2017-09-24T05:58:38.972Z,22.23
2017-09-24T05:59:44.830Z,20.02
2017-09-24T06:00:50.891Z,17.85
2017-09-24T06:01:57.852Z,16.83
2017-09-24T06:03:03.533Z,17.62
2017-09-24T06:04:09.635Z,18.67
2017-09-24T06:05:15.702Z,16.95
2017-09-24T06:06:22.677Z,17.37
2017-09-24T06:07:28.781Z,17.35
2017-09-24T06:08:34.642Z,18.67
2017-09-24T06:09:40.741Z,17.10
2017-09-24T06:10:46.608Z,17.85
2017-09-24T06:11:52.708Z,19.35
2017-09-24T06:12:58.982Z,19.15
2017-09-24T06:14:05.053Z,17.80
2017-09-24T06:15:11.130Z,18.30
2017-09-24T06:16:17.228Z,18.17
2017-09-24T06:17:23.312Z,16.95
2017-09-24T06:18:29.986Z,16.98
2017-09-24T06:19:36.060Z,18.77
2017-09-24T06:20:42.178Z,20.20
2017-09-24T06:21:48.430Z,20.45
2017-09-24T06:22:54.491Z,20.17
2017-09-24T06:24:00.680Z,19.92
2017-09-24T06:25:07.442Z,20.62
2017-09-24T06:26:13.604Z,19.98
2017-09-24T06:27:19.582Z,19.83
2017-09-24T06:28:25.684Z,21.55
2017-09-24T06:29:32.627Z,21.00
2017-09-24T06:30:38.574Z,21.20
2017-09-24T06:31:44.705Z,19.58
2017-09-24T06:32:50.991Z,19.52
2017-09-24T06:33:57.038Z,19.67
2017-09-24T06:35:02.899Z,20.60
2017-09-24T06:36:08.981Z,20.10
2017-09-24T06:37:15.982Z,19.75
2017-09-24T06:38:21.866Z,18.95
2017-09-24T06:39:27.930Z,20.48
2017-09-24T06:40:35.510Z,18.35
2017-09-24T06:41:41.591Z,19.48
2017-09-24T06:42:47.694Z,20.05
2017-09-24T06:43:53.781Z,19.60
2017-09-24T06:45:00.723Z,19.23
2017-09-24T06:46:06.791Z,19.62
2017-09-24T06:47:12.867Z,20.50
2017-09-24T06:48:18.974Z,20.02
2017-09-24T06:49:25.115Z,20.40
2017-09-24T06:50:31.159Z,23.42
2017-09-24T06:51:37.227Z,19.90
2017-09-24T06:52:43.304Z,20.88
2017-09-24T06:53:49.495Z,21.80
2017-09-24T06:54:55.555Z,24.05
2017-09-24T06:56:01.617Z,19.48
2017-09-24T06:57:07.686Z,22.48
2017-09-24T06:58:13.759Z,22.52
2017-09-24T06:59:19.867Z,21.62
2017-09-24T07:00:25.905Z,22.00
2017-09-24T07:01:31.761Z,21.85
2017-09-24T07:02:37.629Z,21.17
2017-09-24T07:03:43.777Z,21.25
2017-09-24T07:04:49.923Z,22.40
2017-09-24T07:05:56.474Z,21.95
2017-09-24T07:07:04.295Z,22.25
2017-09-24T07:08:10.377Z,22.75
2017-09-24T07:09:16.435Z,23.17
2017-09-24T07:10:22.528Z,21.10
2017-09-24T07:11:29.205Z,22.37
2017-09-24T07:12:35.826Z,23.00
2017-09-24T07:13:42.939Z,20.00
2017-09-24T07:14:49.439Z,21.20
2017-09-24T07:15:56.199Z,20.60
2017-09-24T07:17:02.306Z,21.40
2017-09-24T07:18:08.377Z,18.12
2017-09-24T07:19:14.429Z,19.37
2017-09-24T07:20:20.556Z,20.83
2017-09-24T07:21:26.686Z,21.12
2017-09-24T07:22:32.746Z,22.15
2017-09-24T07:23:38.801Z,21.40
2017-09-24T07:24:44.891Z,20.37
2017-09-24T07:25:50.938Z,21.25
2017-09-24T07:26:57.014Z,21.52
2017-09-24T07:28:03.090Z,22.27
2017-09-24T07:29:09.138Z,21.08
2017-09-24T07:30:15.011Z,22.62
2017-09-24T07:31:20.920Z,21.25
2017-09-24T07:32:26.836Z,21.55
2017-09-24T07:33:32.887Z,22.45
2017-09-24T07:34:38.806Z,21.45
2017-09-24T07:35:45.570Z,20.65
2017-09-24T07:36:54.744Z,21.30
2017-09-24T07:38:01.879Z,22.15
2017-09-24T07:39:08.830Z,23.60
2017-09-24T07:40:15.369Z,22.85
2017-09-24T07:41:21.702Z,22.90
2017-09-24T07:42:28.996Z,23.52
2017-09-24T07:43:35.224Z,22.40
2017-09-24T07:44:41.362Z,21.25
2017-09-24T07:45:47.932Z,23.42
2017-09-24T07:46:54.379Z,21.52
2017-09-24T07:48:00.953Z,22.62
2017-09-24T07:49:08.685Z,21.05
2017-09-24T07:50:15.265Z,22.87
2017-09-24T07:51:22.089Z,21.77
2017-09-24T07:52:29.208Z,21.25
2017-09-24T07:53:35.573Z,22.08
2017-09-24T07:54:42.148Z,21.85
2017-09-24T07:55:48.472Z,20.35
2017-09-24T07:56:54.566Z,21.02
2017-09-24T07:58:00.636Z,21.70
2017-09-24T07:59:07.410Z,21.45
2017-09-24T08:00:15.324Z,23.30
2017-09-24T08:01:23.365Z,23.30
2017-09-24T08:02:29.767Z,32.75
2017-09-24T08:03:35.921Z,23.40
2017-09-24T08:04:43.661Z,27.10
2017-09-24T08:05:50.400Z,26.40
2017-09-24T08:06:57.019Z,34.92
2017-09-24T08:08:03.172Z,27.80
2017-09-24T08:09:09.740Z,22.20
2017-09-24T08:10:16.374Z,20.98
2017-09-24T08:11:23.118Z,23.62
2017-09-24T08:12:30.834Z,20.58
2017-09-24T08:13:37.170Z,22.67
2017-09-24T08:14:43.398Z,22.55
2017-09-24T08:15:50.035Z,20.90
2017-09-24T08:16:56.855Z,21.00
2017-09-24T08:18:03.227Z,20.05
2017-09-24T08:19:09.799Z,18.90
2017-09-24T08:20:15.990Z,19.95
2017-09-24T08:21:23.090Z,19.17
2017-09-24T08:22:30.911Z,19.95
2017-09-24T08:23:40.493Z,19.77
2017-09-24T08:24:48.276Z,21.20
2017-09-24T08:25:55.148Z,20.10
2017-09-24T08:27:01.142Z,19.27
2017-09-24T08:28:07.587Z,22.42
2017-09-24T08:29:15.265Z,21.02
2017-09-24T08:30:21.650Z,21.17
2017-09-24T08:31:28.185Z,19.87
2017-09-24T08:32:34.332Z,18.92
2017-09-24T08:33:41.242Z,21.75
2017-09-24T08:34:47.733Z,25.65
2017-09-24T08:35:53.970Z,25.90
2017-09-24T08:37:00.545Z,22.30
2017-09-24T08:38:07.270Z,24.17
2017-09-24T08:39:13.954Z,25.27
2017-09-24T08:40:20.553Z,20.05
2017-09-24T08:41:27.172Z,19.60
2017-09-24T08:42:33.558Z,19.23
2017-09-24T08:43:39.889Z,22.00
2017-09-24T08:44:47.243Z,22.15
2017-09-24T08:45:53.293Z,22.48
2017-09-24T08:47:00.013Z,19.55
2017-09-24T08:48:07.434Z,20.00
2017-09-24T08:49:13.977Z,22.35
2017-09-24T08:50:20.479Z,18.62
2017-09-24T08:51:26.883Z,19.20
2017-09-24T08:52:34.536Z,19.87
2017-09-24T08:53:41.045Z,18.85
2017-09-24T08:54:47.608Z,18.98
2017-09-24T08:55:54.008Z,18.20
2017-09-24T08:57:00.629Z,18.42
2017-09-24T08:58:06.981Z,18.42
2017-09-24T08:59:13.427Z,17.65
2017-09-24T09:00:19.758Z,17.27
2017-09-24T09:01:26.509Z,17.67
2017-09-24T09:02:32.965Z,19.85
2017-09-24T09:03:39.266Z,18.77
2017-09-24T09:04:45.884Z,16.90
2017-09-24T09:05:53.347Z,19.45
2017-09-24T09:06:59.576Z,18.52
2017-09-24T09:08:05.890Z,17.77
2017-09-24T09:09:12.393Z,20.08
2017-09-24T09:10:18.458Z,21.67
2017-09-24T09:11:24.536Z,19.08
2017-09-24T09:12:30.634Z,17.17
2017-09-24T09:13:36.703Z,16.75
2017-09-24T09:14:42.766Z,17.12
2017-09-24T09:15:48.865Z,16.83
2017-09-24T09:16:54.976Z,16.67
2017-09-24T09:18:01.159Z,18.37
2017-09-24T09:19:07.219Z,16.42
2017-09-24T09:20:13.499Z,16.50
2017-09-24T09:21:18.916Z,17.45
2017-09-24T09:22:24.858Z,18.60
2017-09-24T09:23:31.204Z,17.08
2017-09-24T09:24:37.298Z,17.67
2017-09-24T09:25:43.490Z,16.75
2017-09-24T09:26:49.572Z,13.32
2017-09-24T09:27:55.683Z,12.57
2017-09-24T09:29:01.780Z,12.52
2017-09-24T09:30:07.827Z,12.77
2017-09-24T09:31:14.317Z,12.45
2017-09-24T09:32:19.656Z,11.65
2017-09-24T09:33:25.778Z,12.75
2017-09-24T09:34:34.138Z,12.70
2017-09-24T09:35:39.806Z,11.57
2017-09-24T09:36:45.988Z,12.68
2017-09-24T09:37:52.418Z,10.82
2017-09-24T09:39:00.765Z,11.68
2017-09-24T09:40:07.273Z,13.02
2017-09-24T09:41:13.131Z,11.50
2017-09-24T09:42:19.185Z,11.90
2017-09-24T09:43:50.400Z,11.27
2017-09-24T09:44:55.530Z,12.32
2017-09-24T09:46:00.880Z,11.00
2017-09-24T09:47:17.817Z,12.35
2017-09-24T09:48:23.688Z,11.85
2017-09-24T09:49:29.742Z,10.98
2017-09-24T09:50:35.823Z,13.48
2017-09-24T09:51:41.914Z,12.05
2017-09-24T09:52:47.946Z,11.57
2017-09-24T09:53:53.823Z,12.05
2017-09-24T09:54:59.879Z,12.15
2017-09-24T09:56:05.978Z,11.25
2017-09-24T09:57:12.054Z,11.93
2017-09-24T09:58:18.110Z,10.70
2017-09-24T09:59:24.344Z,12.27
2017-09-24T10:00:30.423Z,11.27
2017-09-24T10:01:36.511Z,9.57
2017-09-24T10:02:42.563Z,10.70
2017-09-24T10:03:48.650Z,11.77
2017-09-24T10:04:54.718Z,11.07
2017-09-24T10:06:00.776Z,12.23
2017-09-24T10:07:17.730Z,12.90
2017-09-24T10:08:34.660Z,12.68
2017-09-24T10:10:05.372Z,12.55
2017-09-24T10:11:23.379Z,11.38
2017-09-24T10:12:29.332Z,11.60
2017-09-24T10:13:35.285Z,10.40
2017-09-24T10:14:41.153Z,10.20
2017-09-24T10:15:47.778Z,12.27
2017-09-24T10:16:53.688Z,11.65
2017-09-24T10:17:59.619Z,11.35
2017-09-24T10:19:05.823Z,10.60
2017-09-24T10:20:11.835Z,11.50
2017-09-24T10:21:18.146Z,9.80
2017-09-24T10:22:24.359Z,9.95
2017-09-24T10:23:31.169Z,9.40
2017-09-24T10:24:37.349Z,9.75
2017-09-24T10:25:43.332Z,8.10
2017-09-24T10:26:50.182Z,9.45
2017-09-24T10:27:56.840Z,9.82
2017-09-24T10:29:23.919Z,9.98
2017-09-24T10:30:53.037Z,8.90
2017-09-24T10:32:05.797Z,8.38
2017-09-24T10:33:11.924Z,9.70
2017-09-24T10:34:19.401Z,7.57
2017-09-24T10:35:25.321Z,7.70
2017-09-24T10:36:31.223Z,8.32
2017-09-24T10:37:37.555Z,7.72
2017-09-24T10:38:44.916Z,7.87
2017-09-24T10:39:51.105Z,7.57
2017-09-24T10:40:58.935Z,6.82
2017-09-24T10:42:05.213Z,8.80
2017-09-24T10:43:11.952Z,9.63
2017-09-24T10:44:18.028Z,7.57
2017-09-24T10:45:24.163Z,8.18
2017-09-24T10:46:31.805Z,7.28
2017-09-24T10:47:39.007Z,7.47
2017-09-24T10:48:47.194Z,6.37
2017-09-24T10:49:53.352Z,7.05
2017-09-24T10:51:01.199Z,7.68
2017-09-24T10:52:07.449Z,5.72
2017-09-24T10:53:14.266Z,5.68
2017-09-24T10:54:21.938Z,5.12
2017-09-24T10:55:32.759Z,6.00
2017-09-24T10:56:38.895Z,5.60
2017-09-24T10:57:48.159Z,6.15
2017-09-24T10:58:54.434Z,5.80
2017-09-24T11:00:00.669Z,6.30
2017-09-24T11:01:06.946Z,5.37
2017-09-24T11:02:12.991Z,5.20
2017-09-24T11:03:19.950Z,6.20
2017-09-24T11:04:26.095Z,5.60
2017-09-24T11:05:32.587Z,4.95
2017-09-24T11:06:39.613Z,5.28
2017-09-24T11:07:45.761Z,4.90
2017-09-24T11:08:53.027Z,6.28
2017-09-24T11:09:59.184Z,5.78
2017-09-24T11:11:05.475Z,7.87
2017-09-24T11:12:11.730Z,6.00
2017-09-24T11:13:19.561Z,6.40
2017-09-24T11:14:27.156Z,5.95
2017-09-24T11:15:33.258Z,5.78
2017-09-24T11:16:39.536Z,6.05
2017-09-24T11:17:45.715Z,5.87
2017-09-24T11:18:54.192Z,6.75
2017-09-24T11:20:01.395Z,5.30
2017-09-24T11:21:08.841Z,6.65
2017-09-24T11:22:15.164Z,6.10
2017-09-24T11:23:21.220Z,6.50
2017-09-24T11:24:27.418Z,6.37
2017-09-24T11:25:33.695Z,5.18
2017-09-24T11:26:39.975Z,6.72
2017-09-24T11:27:46.859Z,6.00
2017-09-24T11:29:01.093Z,5.57
2017-09-24T11:30:10.843Z,6.12
2017-09-24T11:31:17.840Z,7.05
2017-09-24T11:32:25.685Z,6.68
2017-09-24T11:33:31.896Z,7.30
2017-09-24T11:34:38.111Z,7.00
2017-09-24T11:35:44.362Z,6.72
2017-09-24T11:36:50.722Z,7.40
2017-09-24T11:37:57.958Z,6.30
2017-09-24T11:39:03.540Z,8.82
2017-09-24T11:40:09.767Z,7.18
2017-09-24T11:41:16.003Z,7.68
2017-09-24T11:42:22.427Z,7.22
2017-09-24T11:43:31.466Z,7.87
2017-09-24T11:44:38.827Z,6.95
2017-09-24T11:45:45.046Z,6.50
2017-09-24T11:46:52.131Z,8.18
2017-09-24T11:47:59.347Z,7.75
2017-09-24T11:49:06.685Z,8.48
2017-09-24T11:50:12.856Z,7.43
2017-09-24T11:51:18.746Z,11.73
2017-09-24T11:52:24.853Z,28.15
2017-09-24T11:53:30.978Z,7.40
2017-09-24T11:54:37.067Z,6.90
2017-09-24T11:55:43.189Z,17.33
2017-09-24T11:56:50.203Z,6.95
2017-09-24T11:57:56.497Z,6.03
2017-09-24T11:59:02.486Z,6.47
2017-09-24T12:00:08.441Z,7.62
2017-09-24T12:01:14.297Z,6.65
2017-09-24T12:02:21.438Z,6.47
